DMM weather

King Fahd International Airport
Ad Dammam, Ash Sharqiyah Region, Saudi Arabia

Public forecast

Using degrees Celsius for public forecast. Weather courtesy of forecast.io.

Current aviation weather report (METAR) for King Fahd International Airport

Retrieved 2020/06/01 05:00 UTC (19 minutes ago):

OEDF 010500Z 32012KT CAVOK 35/09 Q1004 NOSIG

Aviation forecast (TAF) for King Fahd International Airport

Retrieved 2020-06-01 00:06 UTC (5 hours ago):

TAF TAF OEDF 312030Z 0100/0206 30007KT CAVOK BECMG 0108/0110 03014KT BECMG 0118/0120 VRB03KT 7000 NSC